createdAt,value
2023-04-17T00:00:27.337Z,55.78
2023-04-17T00:02:31.141Z,55.59
2023-04-17T00:04:33.387Z,55.62
2023-04-17T00:06:35.683Z,55.67
2023-04-17T00:08:37.980Z,55.77
2023-04-17T00:10:40.508Z,55.97
2023-04-17T00:12:42.709Z,55.98
2023-04-17T00:14:45.009Z,56.08
2023-04-17T00:16:47.279Z,55.70
2023-04-17T00:18:49.218Z,55.60
2023-04-17T00:20:51.047Z,55.79
2023-04-17T00:22:53.071Z,56.17
2023-04-17T00:24:55.012Z,56.32
2023-04-17T00:26:59.035Z,56.05
2023-04-17T00:29:02.487Z,55.68
2023-04-17T00:31:05.593Z,55.61
2023-04-17T00:33:07.707Z,55.61
2023-04-17T00:35:10.051Z,55.55
2023-04-17T00:37:12.298Z,55.51
2023-04-17T00:39:14.714Z,55.41
2023-04-17T00:41:17.093Z,55.57
2023-04-17T00:43:18.892Z,55.49
2023-04-17T00:45:23.389Z,55.72
2023-04-17T00:47:26.524Z,55.71
2023-04-17T00:49:29.555Z,55.75
2023-04-17T00:51:32.540Z,55.52
2023-04-17T00:53:35.769Z,55.97
2023-04-17T00:55:39.771Z,55.64
2023-04-17T00:57:43.961Z,55.63
2023-04-17T00:59:46.974Z,56.16
2023-04-17T01:01:48.881Z,56.16
2023-04-17T01:03:51.454Z,56.22
2023-04-17T01:05:53.325Z,56.13
2023-04-17T01:07:57.405Z,56.25
2023-04-17T01:09:59.604Z,56.43
2023-04-17T01:12:20.954Z,56.44
2023-04-17T01:14:22.888Z,56.55
2023-04-17T01:16:24.681Z,56.78
2023-04-17T01:18:26.788Z,56.54
2023-04-17T01:20:30.273Z,56.62
2023-04-17T01:22:31.954Z,56.93
2023-04-17T01:24:33.872Z,56.89
2023-04-17T01:26:35.977Z,57.07
2023-04-17T01:28:39.891Z,56.84
2023-04-17T01:30:41.692Z,56.95
2023-04-17T01:32:43.555Z,56.97
2023-04-17T01:34:45.317Z,57.09
2023-04-17T01:36:47.033Z,57.48
2023-04-17T01:38:48.905Z,57.19
2023-04-17T01:40:50.846Z,57.16
2023-04-17T01:42:52.750Z,57.36
2023-04-17T01:44:54.550Z,57.59
2023-04-17T01:46:56.802Z,57.50
2023-04-17T01:48:58.522Z,57.58
2023-04-17T01:51:00.549Z,57.77
2023-04-17T01:53:02.257Z,57.99
2023-04-17T01:55:04.478Z,58.05
2023-04-17T01:57:06.199Z,57.84
2023-04-17T01:59:08.416Z,58.09
2023-04-17T02:01:10.280Z,58.49
2023-04-17T02:03:12.078Z,58.39
2023-04-17T02:05:13.857Z,58.59
2023-04-17T02:07:16.661Z,58.49
2023-04-17T02:09:21.035Z,58.40
2023-04-17T02:11:22.888Z,58.65
2023-04-17T02:13:24.727Z,58.74
2023-04-17T02:15:26.713Z,58.78
2023-04-17T02:17:28.552Z,58.94
2023-04-17T02:19:30.383Z,58.96
2023-04-17T02:21:32.113Z,59.00
2023-04-17T02:23:33.865Z,58.72
2023-04-17T02:25:35.623Z,58.98
2023-04-17T02:27:37.346Z,58.67
2023-04-17T02:29:39.047Z,58.96
2023-04-17T02:31:42.051Z,58.88
2023-04-17T02:33:43.889Z,59.00
2023-04-17T02:35:45.817Z,59.14
2023-04-17T02:37:47.984Z,59.09
2023-04-17T02:39:49.789Z,59.36
2023-04-17T02:41:51.547Z,59.48
2023-04-17T02:43:53.312Z,59.22
2023-04-17T02:45:55.605Z,59.56
2023-04-17T02:47:57.590Z,59.52
2023-04-17T02:50:00.364Z,59.55
2023-04-17T02:52:02.118Z,59.54
2023-04-17T02:54:04.055Z,59.59
2023-04-17T02:56:06.038Z,59.50
2023-04-17T02:58:07.859Z,59.70
2023-04-17T03:00:14.208Z,59.80
2023-04-17T03:02:16.724Z,59.82
2023-04-17T03:04:18.739Z,59.61
2023-04-17T03:06:21.740Z,59.52
2023-04-17T03:08:24.984Z,59.86
2023-04-17T03:10:26.681Z,59.82
2023-04-17T03:12:28.479Z,59.94
2023-04-17T03:14:30.553Z,60.21
2023-04-17T03:16:33.396Z,60.13
2023-04-17T03:18:40.142Z,59.98
2023-04-17T03:20:42.277Z,60.28
2023-04-17T03:22:44.859Z,60.68
2023-04-17T03:24:47.014Z,60.60
2023-04-17T03:26:48.991Z,60.67
2023-04-17T03:28:51.286Z,60.67
2023-04-17T03:30:55.469Z,60.85
2023-04-17T03:32:58.060Z,60.89
2023-04-17T03:35:00.458Z,61.18
2023-04-17T03:37:02.536Z,62.09
2023-04-17T03:39:04.483Z,62.81
2023-04-17T03:41:06.449Z,62.82
2023-04-17T03:43:08.487Z,63.79
2023-04-17T03:45:11.102Z,63.14
2023-04-17T03:47:13.259Z,63.50
2023-04-17T03:49:15.275Z,64.06
2023-04-17T03:51:17.562Z,64.12
2023-04-17T03:53:19.606Z,64.49
2023-04-17T03:55:22.053Z,64.33
2023-04-17T03:57:24.060Z,65.23
2023-04-17T03:59:25.987Z,65.03
2023-04-17T04:01:28.589Z,65.04
2023-04-17T04:03:30.788Z,65.58
2023-04-17T04:05:33.142Z,65.47
2023-04-17T04:07:35.187Z,65.67
2023-04-17T04:09:36.995Z,66.16
2023-04-17T04:11:39.083Z,66.66
2023-04-17T04:13:41.424Z,66.73
2023-04-17T04:15:43.412Z,66.91
2023-04-17T04:17:45.553Z,67.51
2023-04-17T04:19:48.297Z,67.69
2023-04-17T04:21:50.191Z,67.78
2023-04-17T04:23:52.274Z,67.72
2023-04-17T04:25:58.145Z,68.11
2023-04-17T04:28:01.887Z,68.29
2023-04-17T04:30:05.281Z,68.09
2023-04-17T04:32:10.025Z,68.59
2023-04-17T04:34:14.072Z,68.50
2023-04-17T04:36:21.200Z,68.20
2023-04-17T04:38:31.222Z,68.95
2023-04-17T04:40:38.437Z,69.11
2023-04-17T04:42:43.612Z,69.14
2023-04-17T04:44:46.370Z,68.97
2023-04-17T04:46:48.763Z,68.72
2023-04-17T04:48:51.175Z,68.94
2023-04-17T04:50:54.645Z,69.39
2023-04-17T04:52:56.572Z,69.04
2023-04-17T04:54:58.576Z,69.00
2023-04-17T04:57:01.066Z,68.65
2023-04-17T04:59:03.334Z,68.68
2023-04-17T05:01:07.075Z,68.76
2023-04-17T05:03:09.154Z,69.11
2023-04-17T05:05:13.652Z,69.38
2023-04-17T05:07:17.444Z,69.81
2023-04-17T05:09:19.788Z,70.11
2023-04-17T05:11:21.865Z,70.61
2023-04-17T05:13:24.022Z,70.33
2023-04-17T05:15:26.215Z,70.54
2023-04-17T05:17:28.337Z,70.61
2023-04-17T05:19:33.766Z,70.02
2023-04-17T05:21:35.745Z,70.30
2023-04-17T05:23:38.057Z,70.52
2023-04-17T05:25:41.738Z,70.65
2023-04-17T05:27:44.058Z,70.38
2023-04-17T05:29:47.715Z,71.30
2023-04-17T05:31:51.150Z,71.28
2023-04-17T05:33:55.408Z,71.20
2023-04-17T05:35:57.432Z,71.24
2023-04-17T05:38:00.478Z,71.08
2023-04-17T05:40:07.588Z,71.14
2023-04-17T05:42:09.660Z,71.81
2023-04-17T05:44:12.514Z,71.88
2023-04-17T05:46:15.124Z,72.17
2023-04-17T05:48:19.958Z,72.49
2023-04-17T05:50:23.576Z,72.39
2023-04-17T05:52:27.034Z,72.22
2023-04-17T05:54:35.992Z,72.39
2023-04-17T05:56:39.727Z,72.10
2023-04-17T05:58:43.166Z,72.09
2023-04-17T06:00:46.152Z,71.58
2023-04-17T06:02:48.989Z,71.72
2023-04-17T06:04:59.138Z,71.79
2023-04-17T06:07:12.623Z,71.91
2023-04-17T06:09:30.094Z,71.01
2023-04-17T06:11:36.138Z,70.94
2023-04-17T06:13:43.203Z,71.31
2023-04-17T06:16:07.238Z,71.72
2023-04-17T06:18:33.206Z,71.11
2023-04-17T06:20:51.691Z,71.64
2023-04-17T06:23:38.400Z,71.89
2023-04-17T06:25:40.732Z,71.85
2023-04-17T06:27:42.545Z,71.39
2023-04-17T06:29:44.366Z,71.43
2023-04-17T06:31:46.724Z,71.91
2023-04-17T06:33:50.187Z,72.03
2023-04-17T06:35:52.004Z,72.27
2023-04-17T06:37:53.816Z,72.10
2023-04-17T06:39:55.737Z,71.80
2023-04-17T06:41:59.369Z,71.72
2023-04-17T06:44:01.318Z,71.23
2023-04-17T06:46:03.998Z,71.01
2023-04-17T06:48:06.646Z,70.42
2023-04-17T06:50:09.562Z,70.73
2023-04-17T06:52:11.942Z,69.70
2023-04-17T06:54:15.504Z,69.02
2023-04-17T06:56:17.549Z,68.98
2023-04-17T06:58:19.391Z,68.52
2023-04-17T07:00:22.237Z,68.16
2023-04-17T07:02:24.462Z,68.05
2023-04-17T07:04:27.341Z,68.63
2023-04-17T07:06:29.283Z,68.60
2023-04-17T07:08:31.178Z,68.26
2023-04-17T07:10:33.103Z,68.05
2023-04-17T07:12:35.287Z,67.91
2023-04-17T07:14:38.340Z,67.69
2023-04-17T07:16:40.512Z,67.89
2023-04-17T07:18:44.774Z,67.63
2023-04-17T07:20:48.697Z,67.29
2023-04-17T07:22:51.194Z,66.83
2023-04-17T07:24:55.506Z,66.17
2023-04-17T07:26:57.863Z,65.70
2023-04-17T07:29:02.316Z,65.89
2023-04-17T07:31:08.822Z,65.78
2023-04-17T07:33:11.108Z,65.70
2023-04-17T07:35:13.157Z,65.51
2023-04-17T07:37:15.870Z,64.68
2023-04-17T07:39:18.763Z,64.25
2023-04-17T07:41:20.723Z,64.71
2023-04-17T07:43:22.804Z,65.43
2023-04-17T07:45:24.734Z,64.87
2023-04-17T07:47:26.863Z,65.07
2023-04-17T07:49:28.987Z,64.22
2023-04-17T07:51:31.751Z,64.26
2023-04-17T07:53:36.104Z,63.27
2023-04-17T07:55:40.030Z,63.17
2023-04-17T07:57:42.836Z,61.83
2023-04-17T07:59:45.947Z,62.24
2023-04-17T08:01:50.410Z,62.03
2023-04-17T08:03:55.771Z,61.96
2023-04-17T08:05:58.917Z,61.04
2023-04-17T08:08:01.157Z,61.14
2023-04-17T08:10:05.213Z,61.12
2023-04-17T08:12:07.452Z,60.41
2023-04-17T08:14:11.910Z,60.25
2023-04-17T08:16:14.312Z,59.68
2023-04-17T08:18:16.539Z,59.16
2023-04-17T08:20:18.908Z,59.49
2023-04-17T08:22:22.186Z,59.06
2023-04-17T08:24:24.586Z,58.27
2023-04-17T08:26:27.308Z,57.83
2023-04-17T08:28:29.340Z,57.54
2023-04-17T08:30:32.014Z,58.02
2023-04-17T08:32:37.923Z,57.90
2023-04-17T08:34:39.904Z,57.29
2023-04-17T08:36:42.154Z,57.20
2023-04-17T08:38:45.229Z,57.62
2023-04-17T08:40:52.267Z,57.54
2023-04-17T08:42:54.754Z,57.30
2023-04-17T08:44:59.931Z,57.80
2023-04-17T08:47:04.080Z,57.13
2023-04-17T08:49:06.101Z,57.01
2023-04-17T08:51:08.114Z,56.92
2023-04-17T08:53:10.287Z,56.46
2023-04-17T08:55:15.289Z,56.09
2023-04-17T08:57:17.171Z,56.37
2023-04-17T08:59:19.141Z,56.08
2023-04-17T09:01:23.414Z,55.74
2023-04-17T09:03:40.697Z,54.51
2023-04-17T09:05:46.395Z,53.55
2023-04-17T09:07:51.898Z,54.10
2023-04-17T09:09:56.233Z,52.75
2023-04-17T09:12:04.444Z,52.00
2023-04-17T09:14:07.150Z,51.74
2023-04-17T09:16:13.017Z,50.95
2023-04-17T09:18:21.500Z,50.47
2023-04-17T09:20:23.829Z,49.74
2023-04-17T09:22:25.846Z,49.79
2023-04-17T09:24:34.735Z,49.28
2023-04-17T09:26:37.322Z,48.74
2023-04-17T09:28:40.219Z,47.26
2023-04-17T09:30:43.060Z,47.81
2023-04-17T09:32:45.241Z,47.35
2023-04-17T09:34:47.464Z,47.77
2023-04-17T09:36:54.623Z,46.76
2023-04-17T09:39:01.250Z,46.88
2023-04-17T09:41:03.205Z,47.12
2023-04-17T09:43:09.447Z,46.24
2023-04-17T09:45:18.098Z,46.58
2023-04-17T09:47:20.524Z,46.71
2023-04-17T09:49:30.443Z,46.13
2023-04-17T09:51:34.566Z,46.47
2023-04-17T09:53:36.603Z,46.53
2023-04-17T09:55:41.901Z,47.15
2023-04-17T09:57:46.847Z,47.29
2023-04-17T09:59:49.449Z,47.66
2023-04-17T10:01:54.389Z,47.72
2023-04-17T10:03:58.342Z,47.87
2023-04-17T10:06:01.560Z,48.31
2023-04-17T10:08:04.264Z,48.41
2023-04-17T10:10:10.877Z,47.90
2023-04-17T10:12:15.924Z,48.03
2023-04-17T10:14:24.461Z,48.35
2023-04-17T10:16:32.672Z,48.10
2023-04-17T10:18:34.853Z,47.89
2023-04-17T10:20:38.292Z,48.41
2023-04-17T10:22:41.500Z,48.45
2023-04-17T10:24:44.423Z,48.52
2023-04-17T10:26:46.745Z,47.48
2023-04-17T10:28:50.257Z,47.53
2023-04-17T10:30:54.869Z,47.23
2023-04-17T10:33:09.779Z,46.98
2023-04-17T10:35:16.511Z,47.00
2023-04-17T10:37:19.142Z,47.10
2023-04-17T10:39:23.421Z,46.38
2023-04-17T10:41:28.801Z,46.63
2023-04-17T10:43:31.941Z,46.63
2023-04-17T10:45:40.431Z,46.66
2023-04-17T10:47:43.016Z,46.57
2023-04-17T10:49:49.265Z,46.71
2023-04-17T10:51:52.562Z,46.41
2023-04-17T10:53:58.015Z,46.43
2023-04-17T10:56:00.263Z,45.82
2023-04-17T10:58:12.443Z,45.62
2023-04-17T11:00:15.636Z,45.46
2023-04-17T11:02:18.266Z,45.53
2023-04-17T11:04:22.391Z,45.29
2023-04-17T11:06:29.028Z,44.88
2023-04-17T11:08:31.060Z,44.83
2023-04-17T11:10:36.402Z,44.21
2023-04-17T11:12:39.386Z,44.11
2023-04-17T11:14:43.458Z,43.12
2023-04-17T11:16:47.879Z,42.53
2023-04-17T11:18:49.954Z,42.36
2023-04-17T11:20:52.750Z,42.35
2023-04-17T11:22:54.790Z,42.45
2023-04-17T11:24:56.765Z,42.47
2023-04-17T11:27:02.102Z,42.47
2023-04-17T11:29:14.668Z,41.90
2023-04-17T11:31:18.638Z,41.50
2023-04-17T11:33:22.532Z,41.04
2023-04-17T11:35:29.567Z,41.42
2023-04-17T11:37:31.522Z,41.55
2023-04-17T11:39:34.738Z,41.39
2023-04-17T11:41:37.941Z,41.46
2023-04-17T11:43:39.903Z,41.71
2023-04-17T11:45:43.913Z,41.64
2023-04-17T11:47:48.171Z,41.43
2023-04-17T11:49:51.916Z,41.45
2023-04-17T11:51:54.521Z,41.14
2023-04-17T11:53:56.723Z,41.81
2023-04-17T11:56:04.957Z,41.67
2023-04-17T11:58:09.836Z,41.40
2023-04-17T12:00:14.552Z,41.17
2023-04-17T12:02:16.952Z,40.63
2023-04-17T12:04:22.248Z,40.29
2023-04-17T12:06:25.162Z,40.52
2023-04-17T12:08:27.320Z,40.04
2023-04-17T12:10:35.582Z,40.47
2023-04-17T12:12:37.753Z,39.33
2023-04-17T12:14:39.691Z,39.61
2023-04-17T12:16:41.861Z,39.51
2023-04-17T12:18:44.521Z,39.70
2023-04-17T12:20:48.778Z,40.14
2023-04-17T12:22:50.745Z,40.45
2023-04-17T12:24:52.718Z,40.89
2023-04-17T12:26:54.867Z,40.85
2023-04-17T12:28:57.752Z,40.68
2023-04-17T12:30:59.820Z,40.35
2023-04-17T12:33:02.107Z,40.69
2023-04-17T12:35:04.341Z,40.45
2023-04-17T12:37:06.445Z,40.86
2023-04-17T12:39:08.457Z,41.14
2023-04-17T12:41:10.896Z,40.79
2023-04-17T12:43:13.372Z,41.25
2023-04-17T12:45:16.727Z,41.30
2023-04-17T12:47:18.787Z,41.33
2023-04-17T12:49:21.042Z,41.26
2023-04-17T12:51:26.317Z,41.70
2023-04-17T12:53:28.502Z,42.07
2023-04-17T12:55:33.072Z,42.57
2023-04-17T12:57:36.818Z,42.91
2023-04-17T12:59:39.781Z,42.77
2023-04-17T13:01:42.808Z,42.72
2023-04-17T13:03:47.160Z,42.47
2023-04-17T13:05:49.601Z,41.92
2023-04-17T13:07:51.502Z,41.25
2023-04-17T13:09:55.742Z,41.49
2023-04-17T13:11:59.937Z,40.90
2023-04-17T13:14:01.998Z,40.06
2023-04-17T13:16:04.601Z,39.73
2023-04-17T13:18:06.872Z,39.19
2023-04-17T13:20:10.027Z,38.90
2023-04-17T13:22:12.405Z,38.61
2023-04-17T13:24:16.391Z,38.52
2023-04-17T13:26:18.574Z,38.56
2023-04-17T13:28:20.640Z,38.81
2023-04-17T13:30:23.305Z,38.37
2023-04-17T13:32:28.289Z,38.58
2023-04-17T13:34:30.337Z,38.50
2023-04-17T13:36:32.372Z,37.83
2023-04-17T13:38:34.517Z,37.88
2023-04-17T13:40:38.735Z,37.37
2023-04-17T13:42:40.790Z,37.09
2023-04-17T13:44:42.903Z,37.36
2023-04-17T13:46:49.834Z,37.78
2023-04-17T13:48:51.778Z,37.42
2023-04-17T13:50:54.366Z,37.48
2023-04-17T13:52:56.345Z,36.64
2023-04-17T13:54:58.761Z,37.28
2023-04-17T13:57:01.613Z,37.50
2023-04-17T13:59:08.866Z,37.15
2023-04-17T14:01:12.533Z,36.89
2023-04-17T14:03:14.821Z,36.73
2023-04-17T14:05:17.469Z,36.06
2023-04-17T14:07:19.526Z,35.61
2023-04-17T14:09:21.480Z,35.21
2023-04-17T14:11:28.577Z,35.36
2023-04-17T14:13:30.540Z,34.87
2023-04-17T14:15:33.038Z,35.05
2023-04-17T14:17:38.239Z,34.87
2023-04-17T14:19:40.548Z,35.18
2023-04-17T14:21:42.985Z,34.68
2023-04-17T14:23:45.575Z,34.95
2023-04-17T14:25:47.822Z,34.76
2023-04-17T14:27:50.425Z,34.99
2023-04-17T14:29:52.520Z,34.26
2023-04-17T14:31:54.800Z,33.84
2023-04-17T14:33:56.990Z,34.47
2023-04-17T14:36:04.498Z,34.46
2023-04-17T14:38:10.676Z,34.39
2023-04-17T14:40:13.298Z,33.21
2023-04-17T14:42:15.373Z,34.11
2023-04-17T14:44:17.308Z,34.49
2023-04-17T14:46:19.352Z,34.19
2023-04-17T14:48:21.321Z,33.89
2023-04-17T14:50:23.503Z,33.21
2023-04-17T14:52:25.524Z,32.92
2023-04-17T14:54:28.070Z,31.86
2023-04-17T14:56:30.080Z,31.79
2023-04-17T14:58:32.143Z,32.25
2023-04-17T15:00:34.359Z,32.68
2023-04-17T15:02:39.134Z,33.54
2023-04-17T15:04:42.566Z,33.50
2023-04-17T15:06:49.932Z,32.98
2023-04-17T15:08:52.261Z,33.02
2023-04-17T15:10:54.635Z,34.37
2023-04-17T15:13:00.606Z,32.41
2023-04-17T15:15:03.613Z,32.48
2023-04-17T15:17:07.317Z,33.41
2023-04-17T15:19:11.018Z,31.55
2023-04-17T15:21:19.170Z,32.20
2023-04-17T15:23:22.600Z,30.03
2023-04-17T15:25:25.396Z,30.41
2023-04-17T15:27:27.856Z,31.08
2023-04-17T15:29:31.006Z,31.53
2023-04-17T15:31:41.605Z,32.15
2023-04-17T15:33:43.957Z,31.30
2023-04-17T15:35:46.442Z,32.18
2023-04-17T15:37:49.066Z,31.05
2023-04-17T15:39:51.469Z,30.79
2023-04-17T15:41:56.891Z,29.87
2023-04-17T15:43:59.547Z,29.92
2023-04-17T15:46:05.544Z,29.84
2023-04-17T15:48:08.411Z,29.77
2023-04-17T15:50:11.649Z,30.20
2023-04-17T15:52:14.109Z,30.99
2023-04-17T15:54:16.856Z,30.73
2023-04-17T15:56:21.647Z,31.33
2023-04-17T15:58:24.101Z,31.04
2023-04-17T16:00:26.362Z,30.15
2023-04-17T16:02:29.012Z,30.41
2023-04-17T16:04:31.565Z,28.90
2023-04-17T16:06:34.180Z,29.30
2023-04-17T16:08:37.692Z,32.82
2023-04-17T16:10:39.760Z,34.34
2023-04-17T16:12:43.397Z,36.01
2023-04-17T16:14:50.217Z,37.58
2023-04-17T16:16:52.678Z,38.43
2023-04-17T16:18:55.403Z,38.56
2023-04-17T16:20:59.882Z,38.08
2023-04-17T16:23:06.989Z,38.07
2023-04-17T16:25:12.453Z,38.14
2023-04-17T16:27:15.017Z,37.91
2023-04-17T16:29:19.796Z,38.47
2023-04-17T16:31:29.463Z,38.71
2023-04-17T16:33:35.473Z,39.16
2023-04-17T16:35:37.880Z,39.32
2023-04-17T16:37:40.163Z,40.05
2023-04-17T16:39:42.508Z,40.90
2023-04-17T16:41:44.993Z,40.60
2023-04-17T16:43:47.285Z,40.85
2023-04-17T16:45:50.037Z,40.73
2023-04-17T16:47:52.228Z,40.73
2023-04-17T16:49:54.764Z,41.29
2023-04-17T16:51:57.312Z,41.55
2023-04-17T16:54:03.011Z,42.14
2023-04-17T16:56:06.834Z,43.27
2023-04-17T16:58:10.520Z,43.16
2023-04-17T17:00:13.962Z,43.21
2023-04-17T17:02:16.435Z,43.83
2023-04-17T17:04:19.049Z,44.28
2023-04-17T17:06:21.766Z,44.33
2023-04-17T17:08:24.340Z,44.90
2023-04-17T17:10:26.664Z,45.03
2023-04-17T17:12:28.880Z,45.60
2023-04-17T17:14:31.318Z,45.79
2023-04-17T17:16:34.291Z,45.83
2023-04-17T17:18:36.926Z,46.30
2023-04-17T17:20:39.715Z,46.28
2023-04-17T17:22:42.992Z,46.20
2023-04-17T17:24:45.467Z,46.22
2023-04-17T17:26:47.696Z,46.34
2023-04-17T17:28:53.500Z,47.34
2023-04-17T17:31:00.669Z,47.36
2023-04-17T17:33:03.180Z,47.70
2023-04-17T17:35:06.111Z,47.63
2023-04-17T17:37:08.272Z,48.62
2023-04-17T17:39:11.366Z,48.33
2023-04-17T17:41:13.853Z,48.50
2023-04-17T17:43:18.255Z,49.22
2023-04-17T17:45:20.754Z,48.95
2023-04-17T17:47:23.175Z,49.09
2023-04-17T17:49:25.820Z,49.38
2023-04-17T17:51:33.373Z,49.63
2023-04-17T17:53:35.768Z,49.90
2023-04-17T17:55:38.235Z,50.20
2023-04-17T17:57:48.801Z,50.47
2023-04-17T17:59:52.109Z,50.59
2023-04-17T18:01:54.937Z,50.87
2023-04-17T18:03:57.360Z,52.04
2023-04-17T18:06:06.967Z,52.61
2023-04-17T18:08:08.937Z,52.35
2023-04-17T18:10:11.228Z,52.14
2023-04-17T18:12:13.249Z,52.74
2023-04-17T18:14:15.483Z,52.22
2023-04-17T18:16:20.324Z,53.26
2023-04-17T18:18:22.511Z,53.12
2023-04-17T18:20:24.700Z,53.82
2023-04-17T18:22:26.693Z,53.74
2023-04-17T18:24:29.135Z,54.29
2023-04-17T18:26:31.996Z,54.31
2023-04-17T18:28:34.161Z,54.44
2023-04-17T18:30:36.672Z,54.63
2023-04-17T18:32:38.873Z,55.06
2023-04-17T18:34:43.970Z,54.82
2023-04-17T18:36:46.022Z,55.87
2023-04-17T18:38:47.956Z,55.73
2023-04-17T18:40:55.721Z,55.81
2023-04-17T18:42:59.751Z,56.27
2023-04-17T18:45:01.728Z,56.57
2023-04-17T18:47:03.751Z,56.95
2023-04-17T18:49:05.832Z,55.96
2023-04-17T18:51:12.608Z,56.09
2023-04-17T18:53:14.970Z,56.91
2023-04-17T18:55:17.760Z,56.61
2023-04-17T18:57:19.745Z,56.15
2023-04-17T18:59:21.796Z,56.71
2023-04-17T19:01:24.056Z,57.00
2023-04-17T19:03:26.088Z,56.80
2023-04-17T19:05:28.268Z,56.57
2023-04-17T19:07:30.348Z,56.01
2023-04-17T19:09:32.248Z,55.72
2023-04-17T19:11:34.325Z,56.38
2023-04-17T19:13:36.276Z,56.36
2023-04-17T19:15:38.368Z,56.10
2023-04-17T19:17:40.730Z,56.28
2023-04-17T19:19:42.778Z,56.49
2023-04-17T19:21:44.750Z,56.52
2023-04-17T19:23:47.634Z,56.13
2023-04-17T19:25:54.240Z,56.42
2023-04-17T19:27:56.172Z,56.15
2023-04-17T19:29:58.171Z,56.25
2023-04-17T19:32:00.406Z,56.24
2023-04-17T19:34:02.485Z,56.60
2023-04-17T19:36:04.732Z,56.82
2023-04-17T19:38:06.996Z,56.63
2023-04-17T19:40:21.278Z,56.81
2023-04-17T19:42:26.814Z,56.75
2023-04-17T19:44:28.807Z,56.66
2023-04-17T19:46:30.794Z,56.59
2023-04-17T19:48:32.788Z,56.87
2023-04-17T19:50:34.906Z,56.89
2023-04-17T19:52:38.430Z,57.04
2023-04-17T19:54:40.817Z,57.66
2023-04-17T19:56:42.929Z,57.44
2023-04-17T19:58:44.858Z,57.21
2023-04-17T20:00:47.098Z,57.28
2023-04-17T20:02:49.456Z,57.03
2023-04-17T20:04:51.436Z,57.25
2023-04-17T20:06:53.540Z,56.94
2023-04-17T20:08:58.429Z,57.07
2023-04-17T20:11:00.763Z,57.37
2023-04-17T20:13:02.707Z,57.39
2023-04-17T20:15:05.378Z,57.67
2023-04-17T20:17:07.286Z,57.62
2023-04-17T20:19:09.681Z,57.80
2023-04-17T20:21:12.708Z,57.86
2023-04-17T20:23:14.602Z,57.65
2023-04-17T20:25:18.178Z,57.77
2023-04-17T20:27:20.177Z,58.05
2023-04-17T20:29:22.427Z,58.10
2023-04-17T20:31:24.323Z,58.53
2023-04-17T20:33:27.135Z,58.58
2023-04-17T20:35:29.228Z,59.23
2023-04-17T20:37:31.546Z,59.89
2023-04-17T20:39:33.840Z,59.19
2023-04-17T20:41:37.758Z,59.30
2023-04-17T20:43:41.888Z,59.45
2023-04-17T20:45:44.025Z,59.74
2023-04-17T20:47:56.429Z,59.50
2023-04-17T20:50:01.631Z,59.74
2023-04-17T20:52:03.647Z,59.80
2023-04-17T20:54:05.757Z,59.69
2023-04-17T20:56:07.790Z,59.90
2023-04-17T20:58:10.709Z,59.85
2023-04-17T21:00:13.362Z,60.08
2023-04-17T21:02:16.398Z,59.51
2023-04-17T21:04:18.499Z,59.28
2023-04-17T21:06:22.397Z,59.20
2023-04-17T21:08:24.671Z,58.89
2023-04-17T21:10:26.703Z,58.90
2023-04-17T21:12:28.682Z,58.45
2023-04-17T21:14:33.637Z,58.63
2023-04-17T21:16:37.643Z,58.22
2023-04-17T21:18:40.267Z,58.02
2023-04-17T21:20:42.266Z,57.92
2023-04-17T21:22:44.210Z,58.16
2023-04-17T21:24:48.670Z,58.18
2023-04-17T21:26:50.838Z,58.20
2023-04-17T21:28:52.828Z,57.88
2023-04-17T21:30:54.860Z,58.21
2023-04-17T21:32:56.801Z,58.39
2023-04-17T21:34:58.818Z,58.86
2023-04-17T21:37:03.842Z,58.40
2023-04-17T21:39:06.894Z,58.80
2023-04-17T21:41:09.344Z,58.59
2023-04-17T21:43:11.702Z,58.77
2023-04-17T21:45:15.074Z,58.99
2023-04-17T21:47:18.499Z,58.77
2023-04-17T21:49:21.055Z,58.90
2023-04-17T21:51:23.352Z,58.77
2023-04-17T21:53:28.345Z,58.68
2023-04-17T21:55:30.501Z,59.01
2023-04-17T21:57:32.606Z,58.74
2023-04-17T21:59:35.079Z,59.36
2023-04-17T22:01:37.231Z,59.05
2023-04-17T22:03:39.186Z,59.03
2023-04-17T22:05:42.304Z,58.40
2023-04-17T22:07:54.258Z,58.91
2023-04-17T22:09:56.584Z,58.63
2023-04-17T22:11:58.798Z,58.71
2023-04-17T22:14:00.725Z,58.40
2023-04-17T22:16:05.236Z,58.49
2023-04-17T22:18:07.259Z,58.13
2023-04-17T22:20:09.932Z,58.35
2023-04-17T22:22:11.805Z,58.03
2023-04-17T22:24:14.058Z,58.65
2023-04-17T22:26:16.313Z,58.19
2023-04-17T22:28:20.437Z,58.49
2023-04-17T22:30:22.562Z,58.49
2023-04-17T22:32:24.444Z,58.45
2023-04-17T22:34:26.343Z,58.24
2023-04-17T22:36:28.685Z,58.41
2023-04-17T22:38:33.200Z,58.32
2023-04-17T22:40:35.111Z,58.16
2023-04-17T22:42:36.965Z,58.52
2023-04-17T22:44:38.847Z,58.13
2023-04-17T22:46:40.864Z,58.35
2023-04-17T22:48:45.154Z,58.80
2023-04-17T22:50:47.279Z,58.99
2023-04-17T22:52:51.736Z,58.74
2023-04-17T22:54:54.301Z,58.50
2023-04-17T22:56:56.157Z,58.69
2023-04-17T22:58:58.064Z,58.89
2023-04-17T23:01:00.571Z,58.90
2023-04-17T23:03:02.647Z,59.08
2023-04-17T23:05:05.447Z,58.39
2023-04-17T23:07:07.370Z,58.62
2023-04-17T23:09:11.637Z,59.33
2023-04-17T23:11:13.598Z,59.30
2023-04-17T23:13:15.411Z,59.00
2023-04-17T23:15:19.492Z,58.33
2023-04-17T23:17:21.428Z,58.49
2023-04-17T23:19:23.590Z,58.48
2023-04-17T23:21:26.180Z,59.01
2023-04-17T23:23:28.096Z,58.70
2023-04-17T23:25:30.112Z,59.48
2023-04-17T23:27:32.127Z,58.36
2023-04-17T23:29:34.029Z,58.47
2023-04-17T23:31:38.302Z,58.40
2023-04-17T23:33:42.218Z,58.55
2023-04-17T23:35:44.104Z,58.10
2023-04-17T23:37:46.313Z,58.20
2023-04-17T23:39:48.331Z,58.45
2023-04-17T23:41:50.517Z,58.22
2023-04-17T23:43:52.626Z,58.29
2023-04-17T23:45:54.598Z,58.52
2023-04-17T23:47:56.632Z,58.93
2023-04-17T23:49:58.643Z,58.90
2023-04-17T23:52:00.540Z,58.78
2023-04-17T23:54:02.519Z,58.69
2023-04-17T23:56:04.591Z,58.26
2023-04-17T23:58:06.466Z,58.26
